sensor_id;sensor_type;location;lat;lon;timestamp;P1;durP1;ratioP1;P2;durP2;ratioP2
15567;SDS011;7885;42.596;23.044;2023-02-04T00:01:19;3.97;;;1.60;;
15567;SDS011;7885;42.596;23.044;2023-02-04T00:03:46;4.97;;;1.67;;
15567;SDS011;7885;42.596;23.044;2023-02-04T00:06:14;5.37;;;1.43;;
15567;SDS011;7885;42.596;23.044;2023-02-04T00:08:41;2.77;;;1.23;;
15567;SDS011;7885;42.596;23.044;2023-02-04T00:11:08;7.37;;;1.77;;
15567;SDS011;7885;42.596;23.044;2023-02-04T00:13:35;4.17;;;1.60;;
15567;SDS011;7885;42.596;23.044;2023-02-04T00:16:01;6.47;;;1.60;;
15567;SDS011;7885;42.596;23.044;2023-02-04T00:18:28;4.60;;;2.17;;
15567;SDS011;7885;42.596;23.044;2023-02-04T00:20:55;9.60;;;3.00;;
15567;SDS011;7885;42.596;23.044;2023-02-04T00:23:23;4.67;;;1.90;;
15567;SDS011;7885;42.596;23.044;2023-02-04T00:25:50;6.50;;;1.90;;
15567;SDS011;7885;42.596;23.044;2023-02-04T00:28:17;4.10;;;1.70;;
15567;SDS011;7885;42.596;23.044;2023-02-04T00:30:44;6.97;;;2.03;;
15567;SDS011;7885;42.596;23.044;2023-02-04T00:33:11;3.33;;;1.57;;
15567;SDS011;7885;42.596;23.044;2023-02-04T00:35:38;7.37;;;2.20;;
15567;SDS011;7885;42.596;23.044;2023-02-04T00:38:05;2.20;;;1.20;;
15567;SDS011;7885;42.596;23.044;2023-02-04T00:40:33;5.53;;;1.70;;
15567;SDS011;7885;42.596;23.044;2023-02-04T00:43:00;4.00;;;1.90;;
15567;SDS011;7885;42.596;23.044;2023-02-04T00:45:27;4.30;;;1.93;;
15567;SDS011;7885;42.596;23.044;2023-02-04T00:47:53;2.90;;;1.37;;
15567;SDS011;7885;42.596;23.044;2023-02-04T00:50:21;2.97;;;1.93;;
15567;SDS011;7885;42.596;23.044;2023-02-04T00:52:48;5.13;;;2.03;;
15567;SDS011;7885;42.596;23.044;2023-02-04T00:55:15;4.90;;;1.50;;
15567;SDS011;7885;42.596;23.044;2023-02-04T00:57:43;5.43;;;2.00;;
15567;SDS011;7885;42.596;23.044;2023-02-04T01:00:12;4.83;;;1.90;;
15567;SDS011;7885;42.596;23.044;2023-02-04T01:02:40;6.03;;;1.73;;
15567;SDS011;7885;42.596;23.044;2023-02-04T01:05:06;4.50;;;1.70;;
15567;SDS011;7885;42.596;23.044;2023-02-04T01:07:34;5.33;;;1.60;;
15567;SDS011;7885;42.596;23.044;2023-02-04T01:10:01;4.90;;;1.93;;
15567;SDS011;7885;42.596;23.044;2023-02-04T01:12:28;2.93;;;1.40;;
15567;SDS011;7885;42.596;23.044;2023-02-04T01:14:56;4.10;;;1.43;;
15567;SDS011;7885;42.596;23.044;2023-02-04T01:17:23;3.23;;;1.80;;
15567;SDS011;7885;42.596;23.044;2023-02-04T01:19:51;8.23;;;2.33;;
15567;SDS011;7885;42.596;23.044;2023-02-04T01:22:17;3.03;;;2.17;;
15567;SDS011;7885;42.596;23.044;2023-02-04T01:24:44;4.87;;;2.00;;
15567;SDS011;7885;42.596;23.044;2023-02-04T01:27:11;3.23;;;1.80;;
15567;SDS011;7885;42.596;23.044;2023-02-04T01:29:38;6.40;;;2.37;;
15567;SDS011;7885;42.596;23.044;2023-02-04T01:32:06;3.33;;;1.83;;
15567;SDS011;7885;42.596;23.044;2023-02-04T01:34:32;5.27;;;2.50;;
15567;SDS011;7885;42.596;23.044;2023-02-04T01:36:59;4.20;;;2.23;;
15567;SDS011;7885;42.596;23.044;2023-02-04T01:39:26;2.50;;;2.03;;
15567;SDS011;7885;42.596;23.044;2023-02-04T01:41:52;7.30;;;2.50;;
15567;SDS011;7885;42.596;23.044;2023-02-04T01:44:19;3.67;;;1.67;;
15567;SDS011;7885;42.596;23.044;2023-02-04T01:46:46;4.30;;;2.60;;
15567;SDS011;7885;42.596;23.044;2023-02-04T01:49:14;4.03;;;1.97;;
15567;SDS011;7885;42.596;23.044;2023-02-04T01:51:42;2.57;;;1.80;;
15567;SDS011;7885;42.596;23.044;2023-02-04T01:54:09;4.00;;;2.20;;
15567;SDS011;7885;42.596;23.044;2023-02-04T01:56:39;2.57;;;1.57;;
15567;SDS011;7885;42.596;23.044;2023-02-04T01:59:10;2.90;;;1.77;;
15567;SDS011;7885;42.596;23.044;2023-02-04T02:01:39;2.43;;;1.67;;
15567;SDS011;7885;42.596;23.044;2023-02-04T02:04:07;2.13;;;1.50;;
15567;SDS011;7885;42.596;23.044;2023-02-04T02:06:37;3.67;;;2.13;;
15567;SDS011;7885;42.596;23.044;2023-02-04T02:09:06;2.60;;;2.10;;
15567;SDS011;7885;42.596;23.044;2023-02-04T02:11:33;3.77;;;1.93;;
15567;SDS011;7885;42.596;23.044;2023-02-04T02:14:00;2.97;;;1.93;;
15567;SDS011;7885;42.596;23.044;2023-02-04T02:16:26;4.60;;;1.63;;
15567;SDS011;7885;42.596;23.044;2023-02-04T02:18:53;5.97;;;1.90;;
15567;SDS011;7885;42.596;23.044;2023-02-04T02:21:24;4.43;;;2.10;;
15567;SDS011;7885;42.596;23.044;2023-02-04T02:23:57;5.73;;;1.90;;
15567;SDS011;7885;42.596;23.044;2023-02-04T02:26:25;3.00;;;1.60;;
15567;SDS011;7885;42.596;23.044;2023-02-04T02:28:52;2.93;;;1.33;;
15567;SDS011;7885;42.596;23.044;2023-02-04T02:31:20;2.77;;;1.73;;
15567;SDS011;7885;42.596;23.044;2023-02-04T02:33:47;1.80;;;1.20;;
15567;SDS011;7885;42.596;23.044;2023-02-04T02:36:14;2.10;;;1.43;;
15567;SDS011;7885;42.596;23.044;2023-02-04T02:38:41;6.57;;;1.80;;
15567;SDS011;7885;42.596;23.044;2023-02-04T02:41:10;4.80;;;2.10;;
15567;SDS011;7885;42.596;23.044;2023-02-04T02:43:37;3.60;;;2.20;;
15567;SDS011;7885;42.596;23.044;2023-02-04T02:46:04;4.67;;;2.23;;
15567;SDS011;7885;42.596;23.044;2023-02-04T02:48:32;4.43;;;2.30;;
15567;SDS011;7885;42.596;23.044;2023-02-04T02:50:58;3.33;;;2.00;;
15567;SDS011;7885;42.596;23.044;2023-02-04T02:53:25;4.90;;;2.00;;
15567;SDS011;7885;42.596;23.044;2023-02-04T02:55:52;2.70;;;2.13;;
15567;SDS011;7885;42.596;23.044;2023-02-04T02:58:22;3.70;;;2.00;;
15567;SDS011;7885;42.596;23.044;2023-02-04T03:00:51;3.03;;;1.67;;
15567;SDS011;7885;42.596;23.044;2023-02-04T03:03:19;5.80;;;1.90;;
15567;SDS011;7885;42.596;23.044;2023-02-04T03:05:48;2.47;;;1.77;;
15567;SDS011;7885;42.596;23.044;2023-02-04T03:08:17;3.70;;;2.00;;
15567;SDS011;7885;42.596;23.044;2023-02-04T03:10:45;3.57;;;2.07;;
15567;SDS011;7885;42.596;23.044;2023-02-04T03:13:13;5.70;;;2.90;;
15567;SDS011;7885;42.596;23.044;2023-02-04T03:15:42;4.10;;;2.30;;
15567;SDS011;7885;42.596;23.044;2023-02-04T03:18:12;4.87;;;2.87;;
15567;SDS011;7885;42.596;23.044;2023-02-04T03:20:41;4.73;;;3.07;;
15567;SDS011;7885;42.596;23.044;2023-02-04T03:23:08;2.60;;;1.70;;
15567;SDS011;7885;42.596;23.044;2023-02-04T03:25:35;2.73;;;1.63;;
15567;SDS011;7885;42.596;23.044;2023-02-04T03:28:02;5.57;;;2.60;;
15567;SDS011;7885;42.596;23.044;2023-02-04T03:30:29;5.03;;;2.20;;
15567;SDS011;7885;42.596;23.044;2023-02-04T03:32:58;4.80;;;2.40;;
15567;SDS011;7885;42.596;23.044;2023-02-04T03:35:24;11.60;;;7.00;;
15567;SDS011;7885;42.596;23.044;2023-02-04T03:37:51;9.73;;;5.77;;
15567;SDS011;7885;42.596;23.044;2023-02-04T03:40:18;6.67;;;3.30;;
15567;SDS011;7885;42.596;23.044;2023-02-04T03:42:45;4.97;;;2.17;;
15567;SDS011;7885;42.596;23.044;2023-02-04T03:45:12;3.57;;;2.40;;
15567;SDS011;7885;42.596;23.044;2023-02-04T03:47:38;5.40;;;2.30;;
15567;SDS011;7885;42.596;23.044;2023-02-04T03:50:07;6.63;;;2.20;;
15567;SDS011;7885;42.596;23.044;2023-02-04T03:52:35;4.27;;;2.43;;
15567;SDS011;7885;42.596;23.044;2023-02-04T03:55:02;3.20;;;2.30;;
15567;SDS011;7885;42.596;23.044;2023-02-04T03:57:28;4.83;;;3.00;;
15567;SDS011;7885;42.596;23.044;2023-02-04T03:59:55;5.60;;;3.33;;
15567;SDS011;7885;42.596;23.044;2023-02-04T04:02:22;7.73;;;4.17;;
15567;SDS011;7885;42.596;23.044;2023-02-04T04:04:48;2.97;;;1.60;;
15567;SDS011;7885;42.596;23.044;2023-02-04T04:07:17;7.77;;;1.90;;
15567;SDS011;7885;42.596;23.044;2023-02-04T04:09:43;3.10;;;1.70;;
15567;SDS011;7885;42.596;23.044;2023-02-04T04:12:10;5.97;;;2.00;;
15567;SDS011;7885;42.596;23.044;2023-02-04T04:14:37;2.60;;;1.93;;
15567;SDS011;7885;42.596;23.044;2023-02-04T04:17:03;4.83;;;1.93;;
15567;SDS011;7885;42.596;23.044;2023-02-04T04:19:31;4.70;;;2.30;;
15567;SDS011;7885;42.596;23.044;2023-02-04T04:21:57;6.67;;;2.60;;
15567;SDS011;7885;42.596;23.044;2023-02-04T04:24:26;4.73;;;2.30;;
15567;SDS011;7885;42.596;23.044;2023-02-04T04:26:52;3.43;;;2.03;;
15567;SDS011;7885;42.596;23.044;2023-02-04T04:29:19;7.03;;;3.60;;
15567;SDS011;7885;42.596;23.044;2023-02-04T04:31:46;13.00;;;5.83;;
15567;SDS011;7885;42.596;23.044;2023-02-04T04:34:13;8.30;;;4.00;;
15567;SDS011;7885;42.596;23.044;2023-02-04T04:36:39;10.10;;;4.90;;
15567;SDS011;7885;42.596;23.044;2023-02-04T04:39:06;11.20;;;4.13;;
15567;SDS011;7885;42.596;23.044;2023-02-04T04:41:34;8.47;;;4.40;;
15567;SDS011;7885;42.596;23.044;2023-02-04T04:44:01;12.60;;;7.13;;
15567;SDS011;7885;42.596;23.044;2023-02-04T04:46:28;12.53;;;6.27;;
15567;SDS011;7885;42.596;23.044;2023-02-04T04:48:54;10.43;;;5.97;;
15567;SDS011;7885;42.596;23.044;2023-02-04T04:51:21;9.87;;;5.40;;
15567;SDS011;7885;42.596;23.044;2023-02-04T04:53:48;9.00;;;4.47;;
15567;SDS011;7885;42.596;23.044;2023-02-04T04:56:15;8.00;;;4.30;;
15567;SDS011;7885;42.596;23.044;2023-02-04T04:58:44;14.37;;;7.00;;
15567;SDS011;7885;42.596;23.044;2023-02-04T05:01:11;15.27;;;8.73;;
15567;SDS011;7885;42.596;23.044;2023-02-04T05:03:37;8.80;;;5.43;;
15567;SDS011;7885;42.596;23.044;2023-02-04T05:06:04;10.60;;;5.50;;
15567;SDS011;7885;42.596;23.044;2023-02-04T05:08:32;9.53;;;6.73;;
15567;SDS011;7885;42.596;23.044;2023-02-04T05:11:00;10.57;;;6.13;;
15567;SDS011;7885;42.596;23.044;2023-02-04T05:13:28;8.27;;;5.77;;
15567;SDS011;7885;42.596;23.044;2023-02-04T05:15:56;7.33;;;5.43;;
15567;SDS011;7885;42.596;23.044;2023-02-04T05:18:23;8.63;;;5.13;;
15567;SDS011;7885;42.596;23.044;2023-02-04T05:20:49;12.00;;;5.83;;
15567;SDS011;7885;42.596;23.044;2023-02-04T05:23:16;9.60;;;5.67;;
15567;SDS011;7885;42.596;23.044;2023-02-04T05:25:43;11.20;;;5.80;;
15567;SDS011;7885;42.596;23.044;2023-02-04T05:28:09;8.83;;;5.90;;
15567;SDS011;7885;42.596;23.044;2023-02-04T05:30:36;15.13;;;11.83;;
15567;SDS011;7885;42.596;23.044;2023-02-04T05:33:04;13.37;;;9.77;;
15567;SDS011;7885;42.596;23.044;2023-02-04T05:35:31;11.73;;;8.47;;
15567;SDS011;7885;42.596;23.044;2023-02-04T05:37:58;11.57;;;8.10;;
15567;SDS011;7885;42.596;23.044;2023-02-04T05:40:24;9.47;;;6.53;;
15567;SDS011;7885;42.596;23.044;2023-02-04T05:42:51;6.10;;;4.57;;
15567;SDS011;7885;42.596;23.044;2023-02-04T05:45:18;9.23;;;5.50;;
15567;SDS011;7885;42.596;23.044;2023-02-04T05:47:44;8.50;;;5.20;;
15567;SDS011;7885;42.596;23.044;2023-02-04T05:50:13;10.60;;;5.40;;
15567;SDS011;7885;42.596;23.044;2023-02-04T05:52:40;10.00;;;5.50;;
15567;SDS011;7885;42.596;23.044;2023-02-04T05:55:07;12.40;;;8.23;;
15567;SDS011;7885;42.596;23.044;2023-02-04T05:57:36;10.70;;;6.20;;
15567;SDS011;7885;42.596;23.044;2023-02-04T06:00:04;8.83;;;5.57;;
15567;SDS011;7885;42.596;23.044;2023-02-04T06:02:32;12.00;;;5.27;;
15567;SDS011;7885;42.596;23.044;2023-02-04T06:04:58;19.23;;;9.40;;
15567;SDS011;7885;42.596;23.044;2023-02-04T06:07:27;13.37;;;7.87;;
15567;SDS011;7885;42.596;23.044;2023-02-04T06:09:53;13.33;;;9.40;;
15567;SDS011;7885;42.596;23.044;2023-02-04T06:12:20;13.60;;;7.60;;
15567;SDS011;7885;42.596;23.044;2023-02-04T06:14:47;16.63;;;10.17;;
15567;SDS011;7885;42.596;23.044;2023-02-04T06:17:14;14.07;;;7.60;;
15567;SDS011;7885;42.596;23.044;2023-02-04T06:19:40;13.93;;;7.50;;
15567;SDS011;7885;42.596;23.044;2023-02-04T06:22:07;16.37;;;6.67;;
15567;SDS011;7885;42.596;23.044;2023-02-04T06:24:35;10.43;;;5.87;;
15567;SDS011;7885;42.596;23.044;2023-02-04T06:27:02;10.80;;;5.60;;
15567;SDS011;7885;42.596;23.044;2023-02-04T06:29:29;9.70;;;4.73;;
15567;SDS011;7885;42.596;23.044;2023-02-04T06:31:55;5.67;;;3.80;;
15567;SDS011;7885;42.596;23.044;2023-02-04T06:34:22;8.20;;;5.10;;
15567;SDS011;7885;42.596;23.044;2023-02-04T06:36:49;6.43;;;4.03;;
15567;SDS011;7885;42.596;23.044;2023-02-04T06:39:16;9.03;;;5.93;;
15567;SDS011;7885;42.596;23.044;2023-02-04T06:41:44;7.07;;;4.57;;
15567;SDS011;7885;42.596;23.044;2023-02-04T06:44:10;8.50;;;4.73;;
15567;SDS011;7885;42.596;23.044;2023-02-04T06:46:37;9.33;;;5.57;;
15567;SDS011;7885;42.596;23.044;2023-02-04T06:49:04;7.63;;;4.43;;
15567;SDS011;7885;42.596;23.044;2023-02-04T06:51:31;6.47;;;4.20;;
15567;SDS011;7885;42.596;23.044;2023-02-04T06:53:58;7.53;;;4.57;;
15567;SDS011;7885;42.596;23.044;2023-02-04T06:56:24;6.20;;;4.53;;
15567;SDS011;7885;42.596;23.044;2023-02-04T06:58:55;6.70;;;4.57;;
15567;SDS011;7885;42.596;23.044;2023-02-04T07:01:22;8.70;;;4.90;;
15567;SDS011;7885;42.596;23.044;2023-02-04T07:03:48;8.70;;;5.50;;
15567;SDS011;7885;42.596;23.044;2023-02-04T07:06:15;6.20;;;4.60;;
15567;SDS011;7885;42.596;23.044;2023-02-04T07:08:42;8.93;;;4.80;;
15567;SDS011;7885;42.596;23.044;2023-02-04T07:11:09;8.57;;;5.93;;
15567;SDS011;7885;42.596;23.044;2023-02-04T07:13:36;10.27;;;6.23;;
15567;SDS011;7885;42.596;23.044;2023-02-04T07:16:04;5.60;;;3.90;;
15567;SDS011;7885;42.596;23.044;2023-02-04T07:18:31;8.83;;;6.77;;
15567;SDS011;7885;42.596;23.044;2023-02-04T07:20:59;10.17;;;6.80;;
15567;SDS011;7885;42.596;23.044;2023-02-04T07:23:25;16.10;;;8.93;;
15567;SDS011;7885;42.596;23.044;2023-02-04T07:25:53;10.43;;;6.37;;
15567;SDS011;7885;42.596;23.044;2023-02-04T07:28:20;11.67;;;7.47;;
15567;SDS011;7885;42.596;23.044;2023-02-04T07:30:47;11.20;;;7.07;;
15567;SDS011;7885;42.596;23.044;2023-02-04T07:33:15;9.77;;;5.03;;
15567;SDS011;7885;42.596;23.044;2023-02-04T07:35:42;14.03;;;9.23;;
15567;SDS011;7885;42.596;23.044;2023-02-04T07:38:09;10.23;;;6.13;;
15567;SDS011;7885;42.596;23.044;2023-02-04T07:40:36;10.77;;;6.63;;
15567;SDS011;7885;42.596;23.044;2023-02-04T07:43:03;17.57;;;10.03;;
15567;SDS011;7885;42.596;23.044;2023-02-04T07:45:30;27.70;;;14.70;;
15567;SDS011;7885;42.596;23.044;2023-02-04T07:47:57;57.73;;;27.40;;
15567;SDS011;7885;42.596;23.044;2023-02-04T07:50:25;32.57;;;18.93;;
15567;SDS011;7885;42.596;23.044;2023-02-04T07:52:52;22.80;;;14.40;;
15567;SDS011;7885;42.596;23.044;2023-02-04T07:55:19;13.50;;;10.03;;
15567;SDS011;7885;42.596;23.044;2023-02-04T07:57:45;13.07;;;9.57;;
15567;SDS011;7885;42.596;23.044;2023-02-04T08:00:12;13.07;;;9.30;;
15567;SDS011;7885;42.596;23.044;2023-02-04T08:02:40;11.63;;;8.90;;
15567;SDS011;7885;42.596;23.044;2023-02-04T08:05:07;12.70;;;9.93;;
15567;SDS011;7885;42.596;23.044;2023-02-04T08:07:36;14.70;;;11.73;;
15567;SDS011;7885;42.596;23.044;2023-02-04T08:10:03;14.67;;;13.17;;
15567;SDS011;7885;42.596;23.044;2023-02-04T08:12:31;18.60;;;11.77;;
15567;SDS011;7885;42.596;23.044;2023-02-04T08:14:58;20.47;;;13.43;;
15567;SDS011;7885;42.596;23.044;2023-02-04T08:17:25;14.93;;;9.90;;
15567;SDS011;7885;42.596;23.044;2023-02-04T08:19:52;18.90;;;12.40;;
15567;SDS011;7885;42.596;23.044;2023-02-04T08:22:19;20.90;;;15.10;;
15567;SDS011;7885;42.596;23.044;2023-02-04T08:24:47;18.80;;;12.87;;
15567;SDS011;7885;42.596;23.044;2023-02-04T08:27:14;16.53;;;11.90;;
15567;SDS011;7885;42.596;23.044;2023-02-04T08:29:41;12.57;;;9.10;;
15567;SDS011;7885;42.596;23.044;2023-02-04T08:32:08;10.43;;;6.00;;
15567;SDS011;7885;42.596;23.044;2023-02-04T08:34:37;13.57;;;9.53;;
15567;SDS011;7885;42.596;23.044;2023-02-04T08:37:04;9.93;;;7.60;;
15567;SDS011;7885;42.596;23.044;2023-02-04T08:39:31;15.70;;;11.00;;
15567;SDS011;7885;42.596;23.044;2023-02-04T08:41:59;20.57;;;13.87;;
15567;SDS011;7885;42.596;23.044;2023-02-04T08:44:26;16.67;;;13.23;;
15567;SDS011;7885;42.596;23.044;2023-02-04T08:46:53;18.00;;;14.10;;
15567;SDS011;7885;42.596;23.044;2023-02-04T08:49:19;12.83;;;9.20;;
15567;SDS011;7885;42.596;23.044;2023-02-04T08:51:47;13.30;;;9.27;;
15567;SDS011;7885;42.596;23.044;2023-02-04T08:54:13;8.93;;;5.27;;
15567;SDS011;7885;42.596;23.044;2023-02-04T08:56:40;3.37;;;2.83;;
15567;SDS011;7885;42.596;23.044;2023-02-04T08:59:08;1.87;;;1.27;;
15567;SDS011;7885;42.596;23.044;2023-02-04T09:01:36;1.70;;;1.40;;
15567;SDS011;7885;42.596;23.044;2023-02-04T09:04:02;2.47;;;1.50;;
15567;SDS011;7885;42.596;23.044;2023-02-04T09:06:29;1.83;;;1.20;;
15567;SDS011;7885;42.596;23.044;2023-02-04T09:08:56;3.00;;;1.70;;
15567;SDS011;7885;42.596;23.044;2023-02-04T09:11:23;2.40;;;1.27;;
15567;SDS011;7885;42.596;23.044;2023-02-04T09:13:50;1.87;;;1.10;;
15567;SDS011;7885;42.596;23.044;2023-02-04T09:16:18;2.63;;;1.60;;
15567;SDS011;7885;42.596;23.044;2023-02-04T09:18:45;9.37;;;7.07;;
15567;SDS011;7885;42.596;23.044;2023-02-04T09:21:12;12.50;;;8.27;;
15567;SDS011;7885;42.596;23.044;2023-02-04T09:23:39;10.53;;;7.67;;
15567;SDS011;7885;42.596;23.044;2023-02-04T09:26:05;4.53;;;2.77;;
15567;SDS011;7885;42.596;23.044;2023-02-04T09:28:32;5.93;;;4.40;;
15567;SDS011;7885;42.596;23.044;2023-02-04T09:30:59;40.97;;;23.13;;
15567;SDS011;7885;42.596;23.044;2023-02-04T09:33:27;17.70;;;10.93;;
15567;SDS011;7885;42.596;23.044;2023-02-04T09:35:54;12.90;;;7.40;;
15567;SDS011;7885;42.596;23.044;2023-02-04T09:38:21;12.53;;;8.30;;
15567;SDS011;7885;42.596;23.044;2023-02-04T09:40:49;19.47;;;12.00;;
15567;SDS011;7885;42.596;23.044;2023-02-04T09:43:20;18.03;;;12.00;;
15567;SDS011;7885;42.596;23.044;2023-02-04T09:45:50;37.57;;;19.87;;
15567;SDS011;7885;42.596;23.044;2023-02-04T09:48:18;25.33;;;14.70;;
15567;SDS011;7885;42.596;23.044;2023-02-04T09:50:48;44.47;;;24.00;;
15567;SDS011;7885;42.596;23.044;2023-02-04T09:53:16;16.40;;;10.00;;
15567;SDS011;7885;42.596;23.044;2023-02-04T09:55:47;17.20;;;11.33;;
15567;SDS011;7885;42.596;23.044;2023-02-04T09:58:15;19.43;;;12.67;;
15567;SDS011;7885;42.596;23.044;2023-02-04T10:00:43;49.77;;;25.50;;
15567;SDS011;7885;42.596;23.044;2023-02-04T10:03:13;36.67;;;21.03;;
15567;SDS011;7885;42.596;23.044;2023-02-04T10:05:42;22.53;;;14.03;;
15567;SDS011;7885;42.596;23.044;2023-02-04T10:08:11;20.80;;;13.43;;
15567;SDS011;7885;42.596;23.044;2023-02-04T10:10:39;45.77;;;33.93;;
15567;SDS011;7885;42.596;23.044;2023-02-04T10:13:07;24.13;;;17.83;;
15567;SDS011;7885;42.596;23.044;2023-02-04T10:15:38;36.23;;;28.97;;
15567;SDS011;7885;42.596;23.044;2023-02-04T10:18:05;33.87;;;26.23;;
15567;SDS011;7885;42.596;23.044;2023-02-04T10:20:33;34.00;;;26.03;;
15567;SDS011;7885;42.596;23.044;2023-02-04T10:23:00;31.70;;;24.13;;
15567;SDS011;7885;42.596;23.044;2023-02-04T10:25:28;28.60;;;22.60;;
15567;SDS011;7885;42.596;23.044;2023-02-04T10:27:56;25.30;;;20.30;;
15567;SDS011;7885;42.596;23.044;2023-02-04T10:30:24;21.57;;;16.53;;
15567;SDS011;7885;42.596;23.044;2023-02-04T10:32:52;21.10;;;15.83;;
15567;SDS011;7885;42.596;23.044;2023-02-04T10:35:20;20.43;;;15.77;;
15567;SDS011;7885;42.596;23.044;2023-02-04T10:37:47;18.43;;;16.30;;
15567;SDS011;7885;42.596;23.044;2023-02-04T10:40:30;18.53;;;14.53;;
15567;SDS011;7885;42.596;23.044;2023-02-04T10:42:58;21.97;;;16.50;;
15567;SDS011;7885;42.596;23.044;2023-02-04T10:45:33;21.73;;;19.43;;
15567;SDS011;7885;42.596;23.044;2023-02-04T10:47:59;17.47;;;13.33;;
15567;SDS011;7885;42.596;23.044;2023-02-04T10:50:27;15.93;;;13.03;;
15567;SDS011;7885;42.596;23.044;2023-02-04T10:52:55;19.33;;;15.33;;
15567;SDS011;7885;42.596;23.044;2023-02-04T10:55:45;19.27;;;15.30;;
15567;SDS011;7885;42.596;23.044;2023-02-04T10:58:14;17.43;;;13.57;;
15567;SDS011;7885;42.596;23.044;2023-02-04T11:00:43;17.03;;;14.53;;
15567;SDS011;7885;42.596;23.044;2023-02-04T11:03:11;31.03;;;19.90;;
15567;SDS011;7885;42.596;23.044;2023-02-04T11:05:43;26.90;;;18.50;;
15567;SDS011;7885;42.596;23.044;2023-02-04T11:08:17;22.47;;;18.20;;
15567;SDS011;7885;42.596;23.044;2023-02-04T11:10:50;22.53;;;18.37;;
15567;SDS011;7885;42.596;23.044;2023-02-04T11:13:22;26.10;;;19.33;;
15567;SDS011;7885;42.596;23.044;2023-02-04T11:15:54;22.00;;;17.30;;
15567;SDS011;7885;42.596;23.044;2023-02-04T11:18:41;21.30;;;17.23;;
15567;SDS011;7885;42.596;23.044;2023-02-04T11:21:13;17.17;;;15.10;;
15567;SDS011;7885;42.596;23.044;2023-02-04T11:23:46;17.37;;;13.40;;
15567;SDS011;7885;42.596;23.044;2023-02-04T11:26:16;16.07;;;11.53;;
15567;SDS011;7885;42.596;23.044;2023-02-04T11:28:50;17.57;;;13.00;;
15567;SDS011;7885;42.596;23.044;2023-02-04T11:31:41;15.30;;;12.40;;
15567;SDS011;7885;42.596;23.044;2023-02-04T11:34:11;14.73;;;11.13;;
15567;SDS011;7885;42.596;23.044;2023-02-04T11:36:56;14.93;;;11.97;;
15567;SDS011;7885;42.596;23.044;2023-02-04T11:39:33;35.47;;;22.43;;
15567;SDS011;7885;42.596;23.044;2023-02-04T11:42:03;25.77;;;19.10;;
15567;SDS011;7885;42.596;23.044;2023-02-04T11:44:31;23.57;;;16.33;;
15567;SDS011;7885;42.596;23.044;2023-02-04T11:47:01;21.67;;;16.40;;
15567;SDS011;7885;42.596;23.044;2023-02-04T11:49:34;23.07;;;15.40;;
15567;SDS011;7885;42.596;23.044;2023-02-04T11:52:02;16.33;;;10.97;;
15567;SDS011;7885;42.596;23.044;2023-02-04T11:54:32;13.77;;;10.00;;
15567;SDS011;7885;42.596;23.044;2023-02-04T11:56:59;12.87;;;9.57;;
15567;SDS011;7885;42.596;23.044;2023-02-04T11:59:28;13.57;;;8.50;;
15567;SDS011;7885;42.596;23.044;2023-02-04T12:02:02;6.57;;;4.33;;
15567;SDS011;7885;42.596;23.044;2023-02-04T12:04:30;9.97;;;6.30;;
15567;SDS011;7885;42.596;23.044;2023-02-04T12:06:57;10.83;;;6.90;;
15567;SDS011;7885;42.596;23.044;2023-02-04T12:09:25;12.97;;;8.53;;
15567;SDS011;7885;42.596;23.044;2023-02-04T12:11:54;11.40;;;6.90;;
15567;SDS011;7885;42.596;23.044;2023-02-04T12:14:28;28.63;;;13.63;;
15567;SDS011;7885;42.596;23.044;2023-02-04T12:16:57;22.47;;;13.63;;
15567;SDS011;7885;42.596;23.044;2023-02-04T12:19:24;15.80;;;13.23;;
15567;SDS011;7885;42.596;23.044;2023-02-04T12:21:51;18.20;;;14.17;;
15567;SDS011;7885;42.596;23.044;2023-02-04T12:24:18;17.67;;;12.10;;
15567;SDS011;7885;42.596;23.044;2023-02-04T12:26:45;8.73;;;6.30;;
15567;SDS011;7885;42.596;23.044;2023-02-04T12:29:12;14.23;;;9.03;;
15567;SDS011;7885;42.596;23.044;2023-02-04T12:31:40;16.87;;;10.03;;
15567;SDS011;7885;42.596;23.044;2023-02-04T12:34:07;34.63;;;20.60;;
15567;SDS011;7885;42.596;23.044;2023-02-04T12:36:33;24.77;;;15.80;;
15567;SDS011;7885;42.596;23.044;2023-02-04T12:39:00;23.03;;;15.73;;
15567;SDS011;7885;42.596;23.044;2023-02-04T12:41:27;31.83;;;20.63;;
15567;SDS011;7885;42.596;23.044;2023-02-04T12:43:54;15.07;;;10.37;;
15567;SDS011;7885;42.596;23.044;2023-02-04T12:46:21;28.23;;;18.03;;
15567;SDS011;7885;42.596;23.044;2023-02-04T12:48:49;15.20;;;9.90;;
15567;SDS011;7885;42.596;23.044;2023-02-04T12:51:16;20.70;;;14.47;;
15567;SDS011;7885;42.596;23.044;2023-02-04T12:53:42;7.63;;;4.53;;
15567;SDS011;7885;42.596;23.044;2023-02-04T12:56:09;6.83;;;5.70;;
15567;SDS011;7885;42.596;23.044;2023-02-04T12:58:36;7.30;;;4.80;;
15567;SDS011;7885;42.596;23.044;2023-02-04T13:01:03;13.83;;;8.83;;
15567;SDS011;7885;42.596;23.044;2023-02-04T13:03:29;15.03;;;9.73;;
15567;SDS011;7885;42.596;23.044;2023-02-04T13:05:58;14.67;;;10.37;;
15567;SDS011;7885;42.596;23.044;2023-02-04T13:08:24;13.23;;;8.90;;
15567;SDS011;7885;42.596;23.044;2023-02-04T13:10:51;9.43;;;5.90;;
15567;SDS011;7885;42.596;23.044;2023-02-04T13:13:18;12.77;;;8.70;;
15567;SDS011;7885;42.596;23.044;2023-02-04T13:15:45;13.80;;;10.00;;
15567;SDS011;7885;42.596;23.044;2023-02-04T13:18:12;14.23;;;10.77;;
15567;SDS011;7885;42.596;23.044;2023-02-04T13:20:39;24.83;;;16.43;;
15567;SDS011;7885;42.596;23.044;2023-02-04T13:23:07;15.43;;;10.00;;
15567;SDS011;7885;42.596;23.044;2023-02-04T13:25:34;11.47;;;6.80;;
15567;SDS011;7885;42.596;23.044;2023-02-04T13:28:01;10.90;;;7.20;;
15567;SDS011;7885;42.596;23.044;2023-02-04T13:30:28;11.23;;;7.07;;
15567;SDS011;7885;42.596;23.044;2023-02-04T13:32:54;14.10;;;8.70;;
15567;SDS011;7885;42.596;23.044;2023-02-04T13:35:21;13.60;;;7.53;;
15567;SDS011;7885;42.596;23.044;2023-02-04T13:37:49;9.77;;;5.23;;
15567;SDS011;7885;42.596;23.044;2023-02-04T13:40:18;7.87;;;4.83;;
15567;SDS011;7885;42.596;23.044;2023-02-04T13:42:44;9.00;;;5.47;;
15567;SDS011;7885;42.596;23.044;2023-02-04T13:45:11;6.90;;;4.00;;
15567;SDS011;7885;42.596;23.044;2023-02-04T13:47:40;8.87;;;4.77;;
15567;SDS011;7885;42.596;23.044;2023-02-04T13:50:07;7.97;;;5.43;;
15567;SDS011;7885;42.596;23.044;2023-02-04T13:52:34;10.10;;;7.30;;
15567;SDS011;7885;42.596;23.044;2023-02-04T13:55:01;22.37;;;14.83;;
15567;SDS011;7885;42.596;23.044;2023-02-04T13:57:29;9.20;;;6.00;;
15567;SDS011;7885;42.596;23.044;2023-02-04T13:59:57;3.83;;;3.40;;
15567;SDS011;7885;42.596;23.044;2023-02-04T14:02:24;6.40;;;3.90;;
15567;SDS011;7885;42.596;23.044;2023-02-04T14:04:50;6.60;;;4.43;;
15567;SDS011;7885;42.596;23.044;2023-02-04T14:07:17;7.97;;;5.70;;
15567;SDS011;7885;42.596;23.044;2023-02-04T14:09:44;10.57;;;6.50;;
15567;SDS011;7885;42.596;23.044;2023-02-04T14:12:12;7.20;;;5.07;;
15567;SDS011;7885;42.596;23.044;2023-02-04T14:14:40;5.17;;;3.70;;
15567;SDS011;7885;42.596;23.044;2023-02-04T14:17:07;5.57;;;3.67;;
15567;SDS011;7885;42.596;23.044;2023-02-04T14:19:34;5.37;;;2.93;;
15567;SDS011;7885;42.596;23.044;2023-02-04T14:22:01;8.53;;;5.40;;
15567;SDS011;7885;42.596;23.044;2023-02-04T14:24:28;7.87;;;5.57;;
15567;SDS011;7885;42.596;23.044;2023-02-04T14:26:54;10.33;;;6.00;;
15567;SDS011;7885;42.596;23.044;2023-02-04T14:29:21;4.80;;;3.20;;
15567;SDS011;7885;42.596;23.044;2023-02-04T14:31:49;4.90;;;2.70;;
15567;SDS011;7885;42.596;23.044;2023-02-04T14:34:16;12.10;;;5.90;;
15567;SDS011;7885;42.596;23.044;2023-02-04T14:36:43;2.70;;;2.13;;
15567;SDS011;7885;42.596;23.044;2023-02-04T14:39:10;2.97;;;2.50;;
15567;SDS011;7885;42.596;23.044;2023-02-04T14:41:37;3.90;;;2.50;;